createdAt,value
2023-05-02T00:00:43.201Z,7.03
2023-05-02T00:03:12.619Z,5.75
2023-05-02T00:05:42.322Z,6.05
2023-05-02T00:08:10.765Z,5.87
2023-05-02T00:10:39.095Z,5.45
2023-05-02T00:13:07.382Z,7.03
2023-05-02T00:15:35.690Z,6.63
2023-05-02T00:18:03.999Z,7.13
2023-05-02T00:20:32.340Z,6.25
2023-05-02T00:23:02.006Z,5.97
2023-05-02T00:25:30.671Z,6.38
2023-05-02T00:27:59.044Z,5.30
2023-05-02T00:30:27.477Z,6.78
2023-05-02T00:32:55.982Z,8.38
2023-05-02T00:35:24.364Z,6.30
2023-05-02T00:37:52.749Z,8.45
2023-05-02T00:40:22.508Z,5.50
2023-05-02T00:42:50.966Z,5.47
2023-05-02T00:45:19.493Z,5.40
2023-05-02T00:47:47.914Z,5.88
2023-05-02T00:50:16.400Z,5.75
2023-05-02T00:52:44.724Z,8.77
2023-05-02T00:55:13.011Z,4.85
2023-05-02T00:57:42.661Z,6.15
2023-05-02T01:00:12.502Z,5.93
2023-05-02T01:02:48.089Z,7.45
2023-05-02T01:05:20.192Z,5.57
2023-05-02T01:07:57.046Z,6.13
2023-05-02T01:10:33.576Z,6.85
2023-05-02T01:13:07.064Z,6.30
2023-05-02T01:15:36.356Z,6.38
2023-05-02T01:18:06.589Z,6.10
2023-05-02T01:20:38.555Z,6.43
2023-05-02T01:23:12.865Z,6.13
2023-05-02T01:25:50.165Z,8.05
2023-05-02T01:28:29.482Z,6.13
2023-05-02T01:30:59.539Z,5.85
2023-05-02T01:33:29.684Z,6.10
2023-05-02T01:35:58.831Z,5.68
2023-05-02T01:38:28.592Z,6.78
2023-05-02T01:40:58.267Z,7.37
2023-05-02T01:43:27.395Z,6.80
2023-05-02T01:45:57.053Z,5.80
2023-05-02T01:48:28.296Z,7.13
2023-05-02T01:50:58.872Z,6.00
2023-05-02T01:55:56.003Z,7.38
2023-05-02T01:58:25.326Z,5.57
2023-05-02T02:00:54.472Z,6.03
2023-05-02T02:03:22.931Z,6.18
2023-05-02T02:05:53.595Z,6.60
2023-05-02T02:10:55.157Z,6.18
2023-05-02T02:13:29.002Z,7.95
2023-05-02T02:16:00.955Z,6.45
2023-05-02T02:18:29.471Z,6.72
2023-05-02T02:21:00.878Z,7.18
2023-05-02T02:23:30.594Z,8.65
2023-05-02T02:25:59.062Z,7.07
2023-05-02T02:28:27.458Z,7.97
2023-05-02T02:30:56.084Z,8.13
2023-05-02T02:33:26.794Z,7.57
2023-05-02T02:38:31.829Z,7.05
2023-05-02T02:41:04.339Z,8.40
2023-05-02T02:43:35.336Z,6.68
2023-05-02T02:46:10.432Z,7.78
2023-05-02T02:48:43.217Z,7.15
2023-05-02T02:51:15.879Z,8.32
2023-05-02T02:53:54.009Z,7.05
2023-05-02T02:56:28.562Z,6.90
2023-05-02T02:58:59.663Z,7.97
2023-05-02T03:01:29.273Z,7.05
2023-05-02T03:03:58.593Z,8.07
2023-05-02T03:06:27.722Z,9.18
2023-05-02T03:08:57.387Z,9.77
2023-05-02T03:11:27.158Z,8.20
2023-05-02T03:13:55.966Z,8.07
2023-05-02T03:16:36.541Z,8.45
2023-05-02T03:19:05.480Z,7.18
2023-05-02T03:21:34.427Z,8.00
2023-05-02T03:24:06.121Z,7.47
2023-05-02T03:26:34.320Z,8.38
2023-05-02T03:29:02.572Z,8.50
2023-05-02T03:31:30.835Z,8.48
2023-05-02T03:33:59.186Z,7.68
2023-05-02T03:36:27.484Z,8.00
2023-05-02T03:38:56.004Z,7.93
2023-05-02T03:41:25.863Z,7.78
2023-05-02T03:43:54.075Z,7.50
2023-05-02T03:46:22.516Z,8.10
2023-05-02T03:48:50.770Z,8.45
2023-05-02T03:51:19.263Z,7.82
2023-05-02T03:53:47.721Z,8.13
2023-05-02T03:56:20.209Z,8.55
2023-05-02T03:58:50.641Z,9.00
2023-05-02T04:01:19.069Z,8.40
2023-05-02T04:03:47.440Z,8.13
2023-05-02T04:06:15.769Z,8.63
2023-05-02T04:08:44.003Z,9.00
2023-05-02T04:11:12.306Z,8.75
2023-05-02T04:13:40.602Z,8.98
2023-05-02T04:16:10.619Z,9.63
2023-05-02T04:18:38.842Z,8.90
2023-05-02T04:21:09.939Z,8.80
2023-05-02T04:23:38.307Z,8.57
2023-05-02T04:26:06.765Z,8.88
2023-05-02T04:28:36.256Z,8.55
2023-05-02T04:31:04.998Z,9.27
2023-05-02T04:33:34.639Z,9.13
2023-05-02T04:36:02.948Z,8.57
2023-05-02T04:38:31.171Z,8.38
2023-05-02T04:40:59.552Z,8.88
2023-05-02T04:43:37.260Z,9.48
2023-05-02T04:46:05.819Z,8.23
2023-05-02T04:48:35.442Z,7.97
2023-05-02T04:51:03.783Z,7.32
2023-05-02T04:53:31.991Z,7.30
2023-05-02T04:56:00.433Z,8.10
2023-05-02T04:58:28.775Z,7.10
2023-05-02T05:00:57.037Z,6.75
2023-05-02T05:03:25.957Z,8.00
2023-05-02T05:05:55.661Z,7.05
2023-05-02T05:08:23.940Z,7.23
2023-05-02T05:10:52.559Z,7.22
2023-05-02T05:13:20.992Z,7.00
2023-05-02T05:15:49.271Z,6.47
2023-05-02T05:18:18.111Z,7.03
2023-05-02T05:20:46.327Z,6.90
2023-05-02T05:23:16.058Z,8.00
2023-05-02T05:25:45.765Z,6.60
2023-05-02T05:28:14.276Z,5.50
2023-05-02T05:30:42.486Z,5.53
2023-05-02T05:33:10.742Z,5.80
2023-05-02T05:35:39.085Z,8.02
2023-05-02T05:38:07.955Z,5.88
2023-05-02T05:40:37.969Z,5.88
2023-05-02T05:43:06.301Z,5.72
2023-05-02T05:45:34.570Z,7.50
2023-05-02T05:48:02.825Z,5.40
2023-05-02T05:50:31.149Z,6.35
2023-05-02T05:52:59.335Z,5.75
2023-05-02T05:55:28.939Z,6.10
2023-05-02T05:57:58.549Z,5.63
2023-05-02T06:00:27.240Z,6.82
2023-05-02T06:02:55.485Z,5.90
2023-05-02T06:05:23.940Z,5.63
2023-05-02T06:07:52.194Z,6.50
2023-05-02T06:10:20.486Z,5.75
2023-05-02T06:12:49.378Z,6.30
2023-05-02T06:15:19.371Z,5.80
2023-05-02T06:17:47.674Z,7.80
2023-05-02T06:20:17.409Z,6.40
2023-05-02T06:22:46.888Z,6.47
2023-05-02T06:25:15.102Z,6.90
2023-05-02T06:27:43.295Z,6.40
2023-05-02T06:30:12.138Z,8.13
2023-05-02T06:32:44.112Z,6.65
2023-05-02T06:35:12.633Z,5.82
2023-05-02T06:37:40.828Z,6.95
2023-05-02T06:40:10.397Z,6.40
2023-05-02T06:42:38.680Z,5.93
2023-05-02T06:45:07.815Z,6.53
2023-05-02T06:47:36.096Z,7.47
2023-05-02T06:50:06.427Z,6.45
2023-05-02T06:52:34.692Z,6.72
2023-05-02T06:55:03.034Z,5.78
2023-05-02T06:57:31.389Z,6.43
2023-05-02T06:59:59.860Z,6.93
2023-05-02T07:02:28.268Z,6.20
2023-05-02T07:04:56.547Z,8.43
2023-05-02T07:07:26.214Z,7.38
2023-05-02T07:09:54.480Z,6.50
2023-05-02T07:12:22.826Z,6.53
2023-05-02T07:14:51.150Z,8.30
2023-05-02T07:17:19.574Z,7.70
2023-05-02T07:19:47.873Z,7.65
2023-05-02T07:22:16.332Z,8.63
2023-05-02T07:24:46.552Z,6.80
2023-05-02T07:27:14.826Z,6.10
2023-05-02T07:29:43.462Z,6.30
2023-05-02T07:32:11.733Z,7.70
2023-05-02T07:34:39.958Z,7.22
2023-05-02T07:37:08.275Z,7.05
2023-05-02T07:39:36.512Z,6.03
2023-05-02T07:42:06.639Z,6.38
2023-05-02T07:44:36.033Z,6.82
2023-05-02T07:47:04.326Z,6.85
2023-05-02T07:49:32.519Z,6.78
2023-05-02T07:52:01.103Z,7.80
2023-05-02T07:54:29.437Z,7.15
2023-05-02T07:57:02.183Z,7.13
2023-05-02T07:59:32.619Z,6.28
2023-05-02T08:02:00.999Z,7.75
2023-05-02T08:04:29.308Z,7.50
2023-05-02T08:06:57.706Z,8.18
2023-05-02T08:09:25.959Z,10.45
2023-05-02T08:11:54.189Z,7.72
2023-05-02T08:14:22.394Z,7.63
2023-05-02T08:16:52.179Z,7.40
2023-05-02T08:19:20.561Z,8.57
2023-05-02T08:21:48.855Z,7.65
2023-05-02T08:24:17.058Z,7.93
2023-05-02T08:26:45.269Z,9.90
2023-05-02T08:29:13.674Z,7.80
2023-05-02T08:31:42.350Z,7.13
2023-05-02T08:34:11.949Z,9.05
2023-05-02T08:36:40.219Z,8.30
2023-05-02T08:39:09.392Z,6.78
2023-05-02T08:41:39.089Z,8.95
2023-05-02T08:44:08.025Z,6.97
2023-05-02T08:46:37.383Z,8.52
2023-05-02T08:49:06.805Z,7.25
2023-05-02T08:51:38.538Z,7.00
2023-05-02T08:54:09.576Z,7.35
2023-05-02T08:56:38.948Z,7.00
2023-05-02T08:59:08.164Z,7.70
2023-05-02T09:01:37.419Z,8.35
2023-05-02T09:04:05.929Z,7.85
2023-05-02T09:06:35.238Z,9.93
2023-05-02T09:09:04.995Z,8.07
2023-05-02T09:11:33.282Z,9.07
2023-05-02T09:14:04.201Z,8.25
2023-05-02T09:16:40.016Z,7.22
2023-05-02T09:19:08.382Z,8.57
2023-05-02T09:21:38.114Z,8.18
2023-05-02T09:24:18.269Z,10.32
2023-05-02T09:26:58.435Z,8.88
2023-05-02T09:29:28.482Z,8.20
2023-05-02T09:31:57.031Z,7.78
2023-05-02T09:34:25.501Z,8.27
2023-05-02T09:36:54.794Z,7.32
2023-05-02T09:39:26.402Z,8.38
2023-05-02T09:41:55.239Z,9.40
2023-05-02T09:44:25.828Z,8.07
2023-05-02T09:49:40.520Z,8.50
2023-05-02T09:52:12.387Z,9.23
2023-05-02T09:54:42.246Z,8.10
2023-05-02T09:57:11.448Z,8.80
2023-05-02T09:59:41.025Z,10.18
2023-05-02T10:02:11.578Z,9.60
2023-05-02T10:04:40.583Z,10.30
2023-05-02T10:07:10.506Z,10.10
2023-05-02T10:09:43.250Z,10.80
2023-05-02T10:12:15.581Z,7.68
2023-05-02T10:14:49.411Z,8.63
2023-05-02T10:17:24.610Z,9.60
2023-05-02T10:20:02.230Z,9.57
2023-05-02T10:22:31.084Z,8.35
2023-05-02T10:25:01.206Z,7.60
2023-05-02T10:29:59.769Z,7.80
2023-05-02T10:32:29.670Z,8.25
2023-05-02T10:34:58.674Z,9.68
2023-05-02T10:37:27.755Z,10.63
2023-05-02T10:39:56.326Z,7.05
2023-05-02T10:42:26.261Z,8.57
2023-05-02T10:44:54.577Z,9.68
2023-05-02T10:47:23.326Z,9.57
2023-05-02T10:49:53.205Z,9.48
2023-05-02T10:52:27.151Z,9.65
2023-05-02T10:55:14.980Z,8.25
2023-05-02T10:58:20.755Z,9.35
2023-05-02T11:00:50.539Z,9.77
2023-05-02T11:03:52.232Z,9.40
2023-05-02T11:06:20.624Z,9.15
2023-05-02T11:08:49.032Z,11.40
2023-05-02T11:11:42.701Z,8.68
2023-05-02T11:14:12.086Z,9.70
2023-05-02T11:17:10.877Z,9.60
2023-05-02T11:20:27.568Z,8.30
2023-05-02T11:23:00.962Z,9.98
2023-05-02T11:25:40.139Z,8.25
2023-05-02T11:28:10.367Z,9.05
2023-05-02T11:30:40.601Z,9.90
2023-05-02T11:33:17.284Z,8.10
2023-05-02T11:35:47.257Z,8.20
2023-05-02T11:38:21.084Z,9.32
2023-05-02T11:40:57.183Z,12.60
2023-05-02T11:43:30.107Z,10.85
2023-05-02T11:46:00.681Z,9.60
2023-05-02T11:48:31.773Z,9.00
2023-05-02T11:51:03.774Z,10.70
2023-05-02T11:53:32.895Z,9.80
2023-05-02T11:56:02.346Z,8.88
2023-05-02T11:58:32.851Z,9.52
2023-05-02T12:01:13.173Z,8.27
2023-05-02T12:03:43.135Z,8.18
2023-05-02T12:06:13.244Z,9.13
2023-05-02T12:08:43.276Z,11.35
2023-05-02T12:11:14.472Z,10.43
2023-05-02T12:13:46.681Z,9.68
2023-05-02T12:16:15.311Z,9.13
2023-05-02T12:18:45.242Z,10.27
2023-05-02T12:21:13.669Z,8.77
2023-05-02T12:23:42.995Z,8.75
2023-05-02T12:26:21.481Z,9.02
2023-05-02T12:28:50.515Z,9.18
2023-05-02T12:31:20.706Z,9.00
2023-05-02T12:33:52.403Z,9.65
2023-05-02T12:36:20.828Z,9.25
2023-05-02T12:38:50.975Z,10.68
2023-05-02T12:41:19.888Z,9.30
2023-05-02T12:43:49.335Z,9.63
2023-05-02T12:46:17.864Z,9.57
2023-05-02T12:48:46.836Z,10.63
2023-05-02T12:51:25.783Z,9.98
2023-05-02T12:53:54.015Z,10.18
2023-05-02T12:56:22.853Z,10.85
2023-05-02T12:58:51.644Z,9.75
2023-05-02T13:01:19.989Z,6.15
2023-05-02T13:03:48.947Z,3.95
2023-05-02T13:06:17.996Z,4.15
2023-05-02T13:08:47.627Z,3.97
2023-05-02T13:11:15.897Z,5.50
2023-05-02T13:13:44.195Z,9.23
2023-05-02T13:16:12.640Z,8.25
2023-05-02T13:18:41.141Z,8.98
2023-05-02T13:21:09.653Z,7.22
2023-05-02T13:23:39.506Z,10.48
2023-05-02T13:26:09.194Z,58.35
2023-05-02T13:28:37.455Z,10.97
2023-05-02T13:31:09.068Z,11.48
2023-05-02T13:33:46.409Z,9.77
2023-05-02T13:36:14.723Z,8.27
2023-05-02T13:38:43.102Z,8.63
2023-05-02T13:41:12.733Z,10.68
2023-05-02T13:43:41.086Z,10.67
2023-05-02T13:46:09.434Z,10.38
2023-05-02T13:48:38.347Z,10.75
2023-05-02T13:51:06.619Z,8.98
2023-05-02T13:53:34.998Z,8.25
2023-05-02T13:56:03.306Z,10.65
2023-05-02T13:58:32.861Z,9.35
2023-05-02T14:01:01.560Z,8.10
2023-05-02T14:03:29.917Z,10.50
2023-05-02T14:05:58.177Z,8.38
2023-05-02T14:08:26.436Z,11.90
2023-05-02T14:10:54.679Z,10.95
2023-05-02T14:13:23.094Z,9.18
2023-05-02T14:15:52.768Z,8.85
2023-05-02T14:18:21.363Z,7.33
2023-05-02T14:20:49.659Z,11.10
2023-05-02T14:23:17.972Z,7.57
2023-05-02T14:25:46.178Z,7.55
2023-05-02T14:28:14.432Z,7.03
2023-05-02T14:30:42.667Z,7.47
2023-05-02T14:33:12.359Z,6.60
2023-05-02T14:35:40.680Z,4.88
2023-05-02T14:38:08.956Z,15.40
2023-05-02T14:40:38.128Z,15.38
2023-05-02T14:43:15.457Z,12.18
2023-05-02T14:45:44.555Z,4.80
2023-05-02T14:48:17.089Z,3.60
2023-05-02T14:50:45.473Z,3.50
2023-05-02T14:53:14.228Z,3.00
2023-05-02T14:55:42.855Z,3.47
2023-05-02T14:58:11.728Z,2.90
2023-05-02T15:00:40.175Z,4.22
2023-05-02T15:03:09.795Z,4.10
2023-05-02T15:05:40.079Z,2.97
2023-05-02T15:08:08.455Z,2.95
2023-05-02T15:10:39.709Z,2.85
2023-05-02T15:13:08.841Z,2.17
2023-05-02T15:15:37.535Z,2.08
2023-05-02T15:18:06.041Z,3.40
2023-05-02T15:20:34.455Z,2.92
2023-05-02T15:23:04.598Z,2.35
2023-05-02T15:25:33.027Z,3.83
2023-05-02T15:28:02.535Z,2.90
2023-05-02T15:30:30.863Z,2.90
2023-05-02T15:32:59.143Z,2.30
2023-05-02T15:35:27.560Z,3.10
2023-05-02T15:37:56.515Z,3.00
2023-05-02T15:40:28.388Z,3.08
2023-05-02T15:42:56.720Z,3.28
2023-05-02T15:45:25.053Z,5.03
2023-05-02T15:47:53.242Z,3.28
2023-05-02T15:50:21.551Z,3.88
2023-05-02T15:52:50.043Z,4.45
2023-05-02T15:55:18.336Z,3.60
2023-05-02T15:57:51.662Z,4.57
2023-05-02T16:00:20.400Z,4.80
2023-05-02T16:02:48.670Z,4.35
2023-05-02T16:05:17.152Z,4.13
2023-05-02T16:07:45.453Z,5.15
2023-05-02T16:10:14.268Z,4.18
2023-05-02T16:12:42.508Z,4.63
2023-05-02T16:15:12.320Z,6.30
2023-05-02T16:17:42.953Z,5.05
2023-05-02T16:22:44.242Z,3.90
2023-05-02T16:25:12.655Z,3.95
2023-05-02T16:27:41.116Z,5.55
2023-05-02T16:30:10.614Z,5.25
2023-05-02T16:32:40.668Z,4.45
2023-05-02T16:35:12.367Z,5.35
2023-05-02T16:37:41.147Z,3.55
2023-05-02T16:40:10.395Z,4.13
2023-05-02T16:42:38.781Z,14.07
2023-05-02T16:45:08.669Z,6.93
2023-05-02T16:47:37.654Z,6.70
2023-05-02T16:50:08.654Z,5.72
2023-05-02T16:52:38.139Z,5.13
2023-05-02T16:55:07.147Z,6.47
2023-05-02T16:57:35.456Z,6.43
2023-05-02T17:00:04.688Z,7.47
2023-05-02T17:02:33.320Z,6.60
2023-05-02T17:05:01.663Z,6.75
2023-05-02T17:07:31.303Z,7.93
2023-05-02T17:09:59.628Z,5.90
2023-05-02T17:12:28.009Z,9.43
2023-05-02T17:14:56.282Z,7.15
2023-05-02T17:17:24.525Z,10.38
2023-05-02T17:19:52.767Z,9.18
2023-05-02T17:22:21.472Z,9.50
2023-05-02T17:24:54.122Z,5.07
2023-05-02T17:27:22.437Z,4.15
2023-05-02T17:29:50.766Z,5.53
2023-05-02T17:32:19.030Z,4.88
2023-05-02T17:34:47.261Z,8.40
2023-05-02T17:37:15.593Z,10.30
2023-05-02T17:39:43.850Z,4.75
2023-05-02T17:42:13.445Z,5.32
2023-05-02T17:44:41.892Z,6.28
2023-05-02T17:47:10.124Z,5.20
2023-05-02T17:49:38.336Z,5.20
2023-05-02T17:52:06.659Z,4.75
2023-05-02T17:54:34.892Z,7.97
2023-05-02T17:57:03.291Z,5.00
2023-05-02T17:59:32.903Z,4.60
2023-05-02T18:02:01.228Z,4.60
2023-05-02T18:04:29.550Z,5.00
2023-05-02T18:06:57.763Z,5.47
2023-05-02T18:09:26.093Z,5.03
2023-05-02T18:11:55.423Z,4.63
2023-05-02T18:14:23.693Z,5.85
2023-05-02T18:16:53.309Z,5.85
2023-05-02T18:19:21.955Z,5.83
2023-05-02T18:21:50.355Z,6.85
2023-05-02T18:24:18.724Z,7.35
2023-05-02T18:26:49.324Z,5.60
2023-05-02T18:31:52.197Z,5.80
2023-05-02T18:34:22.844Z,6.28
2023-05-02T18:36:51.164Z,4.53
2023-05-02T18:39:21.549Z,5.28
2023-05-02T18:41:49.908Z,6.15
2023-05-02T18:44:18.184Z,6.13
2023-05-02T18:46:46.960Z,5.85
2023-05-02T18:49:15.659Z,6.80
2023-05-02T18:51:45.304Z,6.80
2023-05-02T18:54:13.643Z,6.50
2023-05-02T18:56:42.261Z,5.43
2023-05-02T18:59:10.602Z,6.80
2023-05-02T19:01:38.960Z,6.00
2023-05-02T19:04:07.319Z,6.78
2023-05-02T19:06:35.856Z,6.40
2023-05-02T19:09:05.707Z,6.43
2023-05-02T19:11:34.086Z,6.72
2023-05-02T19:14:03.596Z,7.30
2023-05-02T19:16:32.199Z,8.02
2023-05-02T19:19:00.540Z,7.28
2023-05-02T19:21:28.922Z,7.80
2023-05-02T19:23:57.450Z,7.40
2023-05-02T19:26:27.141Z,8.07
2023-05-02T19:28:55.427Z,8.27
2023-05-02T19:31:24.350Z,7.80
2023-05-02T19:33:52.768Z,8.68
2023-05-02T19:36:22.007Z,9.55
2023-05-02T19:38:51.108Z,8.85
2023-05-02T19:41:19.527Z,9.00
2023-05-02T19:43:49.217Z,7.55
2023-05-02T19:46:18.053Z,21.43
2023-05-02T19:48:46.636Z,7.00
2023-05-02T19:51:14.875Z,8.80
2023-05-02T19:53:43.137Z,10.85
2023-05-02T19:56:11.421Z,9.93
2023-05-02T19:58:39.646Z,45.80
2023-05-02T20:01:09.288Z,65.68
2023-05-02T20:03:37.618Z,50.17
2023-05-02T20:06:06.123Z,60.80
2023-05-02T20:08:34.491Z,50.45
2023-05-02T20:11:03.166Z,19.52
2023-05-02T20:13:31.457Z,11.30
2023-05-02T20:15:59.790Z,8.70
2023-05-02T20:18:29.469Z,11.35
2023-05-02T20:20:57.790Z,9.23
2023-05-02T20:23:26.154Z,9.00
2023-05-02T20:25:54.408Z,11.02
2023-05-02T20:28:22.685Z,9.65
2023-05-02T20:30:50.996Z,9.60
2023-05-02T20:33:19.795Z,8.65
2023-05-02T20:35:54.672Z,13.27
2023-05-02T20:38:24.216Z,18.33
2023-05-02T20:40:53.086Z,10.90
2023-05-02T20:43:22.895Z,12.18
2023-05-02T20:45:51.224Z,11.15
2023-05-02T20:48:19.517Z,8.80
2023-05-02T20:50:55.886Z,8.15
2023-05-02T20:53:26.444Z,8.38
2023-05-02T20:58:22.728Z,15.23
2023-05-02T21:00:52.623Z,77.50
2023-05-02T21:03:21.659Z,66.63
2023-05-02T21:05:53.534Z,59.30
2023-05-02T21:08:24.890Z,46.60
2023-05-02T21:10:54.097Z,38.75
2023-05-02T21:13:22.821Z,29.85
2023-05-02T21:15:51.168Z,21.42
2023-05-02T21:18:19.480Z,24.20
2023-05-02T21:20:49.079Z,32.45
2023-05-02T21:23:17.401Z,25.67
2023-05-02T21:25:47.102Z,16.17
2023-05-02T21:28:15.427Z,17.13
2023-05-02T21:30:43.743Z,21.45
2023-05-02T21:33:12.610Z,34.25
2023-05-02T21:35:40.909Z,36.85
2023-05-02T21:38:09.202Z,81.82
2023-05-02T21:40:38.145Z,234.27
2023-05-02T21:43:07.788Z,51.83
2023-05-02T21:45:36.068Z,91.50
2023-05-02T21:48:04.634Z,89.18
2023-05-02T21:50:33.980Z,54.60
2023-05-02T21:53:02.537Z,57.67
2023-05-02T21:55:30.855Z,67.50
2023-05-02T21:57:59.160Z,100.85
2023-05-02T22:00:28.843Z,51.55
2023-05-02T22:02:57.482Z,21.67
2023-05-02T22:05:25.840Z,80.47
2023-05-02T22:07:55.571Z,57.35
2023-05-02T22:10:23.858Z,47.83
2023-05-02T22:12:52.195Z,57.75
2023-05-02T22:15:20.614Z,55.40
2023-05-02T22:17:50.727Z,35.67
2023-05-02T22:20:19.128Z,52.80
2023-05-02T22:22:47.580Z,160.38
2023-05-02T22:25:15.986Z,67.15
2023-05-02T22:27:44.352Z,49.28
2023-05-02T22:30:12.988Z,39.83
2023-05-02T22:32:42.327Z,47.55
2023-05-02T22:35:12.220Z,22.55
2023-05-02T22:37:40.543Z,27.17
2023-05-02T22:40:10.359Z,44.72
2023-05-02T22:42:38.713Z,26.05
2023-05-02T22:45:09.494Z,15.00
2023-05-02T22:47:37.905Z,12.70
2023-05-02T22:50:11.388Z,17.17
2023-05-02T22:52:41.118Z,25.60
2023-05-02T22:55:10.620Z,21.03
2023-05-02T22:57:39.092Z,19.88
2023-05-02T23:00:10.803Z,30.70
2023-05-02T23:02:39.382Z,32.58
2023-05-02T23:05:09.492Z,36.58
2023-05-02T23:07:37.872Z,49.15
2023-05-02T23:10:09.367Z,73.63
2023-05-02T23:12:37.768Z,78.30
2023-05-02T23:15:06.937Z,52.60
2023-05-02T23:17:38.326Z,81.57
2023-05-02T23:20:10.237Z,61.60
2023-05-02T23:22:45.575Z,41.28
2023-05-02T23:25:16.282Z,63.83
2023-05-02T23:30:13.018Z,39.13
2023-05-02T23:32:41.466Z,19.92
2023-05-02T23:35:11.114Z,21.63
2023-05-02T23:37:40.390Z,21.58
2023-05-02T23:40:10.275Z,24.65
2023-05-02T23:42:40.549Z,21.52
2023-05-02T23:45:09.529Z,32.03
2023-05-02T23:47:38.251Z,26.50
2023-05-02T23:50:07.654Z,10.93
2023-05-02T23:52:35.978Z,13.93
2023-05-02T23:55:08.487Z,18.08
2023-05-02T23:57:36.827Z,16.65
